Time;durP1;ratioP1;P1;durP2;ratioP2;P2;SDS_P1;SDS_P2;PMS_P1;PMS_P2;Temp;Humidity;BMP_temperature;BMP_pressure;BME280_temperature;BME280_humidity;BME280_pressure;Samples;Min_cycle;Max_cycle;Signal;HPM_P1;HPM_P2
2021/01/03 00:00:56;;;;;;;11.45;7.53;;;;;;;;;;4994039;28;20425;-67
2021/01/03 00:03:22;;;;;;;9.68;6.57;;;;;;;;;;4994198;28;20051;-68
2021/01/03 00:05:49;;;;;;;9.45;6.70;;;;;;;;;;4993797;28;20085;-67
2021/01/03 00:08:15;;;;;;;11.15;6.40;;;;;;;;;;4994110;28;20090;-67
2021/01/03 00:10:41;;;;;;;10.15;6.57;;;;;;;;;;4993811;28;20046;-67
2021/01/03 00:13:07;;;;;;;11.45;6.90;;;;;;;;;;4994105;28;20054;-67
2021/01/03 00:15:33;;;;;;;9.63;6.57;;;;;;;;;;4992685;28;20309;-67
2021/01/03 00:17:59;;;;;;;11.10;7.05;;;;;;;;;;4993740;28;20766;-68
2021/01/03 00:20:27;;;;;;;8.98;6.40;;;;;;;;;;4997388;28;20077;-68
2021/01/03 00:22:53;;;;;;;9.70;6.13;;;;;;;;;;5013226;28;20093;-68
2021/01/03 00:25:21;;;;;;;9.38;5.95;;;;;;;;;;5013117;28;20082;-68
2021/01/03 00:27:50;;;;;;;9.50;6.18;;;;;;;;;;5012988;28;20050;-67
2021/01/03 00:30:17;;;;;;;9.93;6.75;;;;;;;;;;5013314;28;20322;-67
2021/01/03 00:32:44;;;;;;;8.77;5.78;;;;;;;;;;5013092;28;20068;-67
2021/01/03 00:35:13;;;;;;;9.73;6.35;;;;;;;;;;5002462;28;20088;-67
2021/01/03 00:37:39;;;;;;;10.90;7.18;;;;;;;;;;4993351;28;20073;-67
2021/01/03 00:40:08;;;;;;;9.25;5.68;;;;;;;;;;4993244;28;20050;-66
2021/01/03 00:42:34;;;;;;;8.90;6.30;;;;;;;;;;4993727;28;20133;-67
2021/01/03 00:45:00;;;;;;;9.50;6.32;;;;;;;;;;4993244;28;20050;-68
2021/01/03 00:47:26;;;;;;;9.45;6.07;;;;;;;;;;4992969;28;20047;-68
2021/01/03 00:49:52;;;;;;;10.43;5.55;;;;;;;;;;4993156;28;20050;-67
2021/01/03 00:52:18;;;;;;;8.95;6.25;;;;;;;;;;4994799;28;20120;-68
2021/01/03 00:54:44;;;;;;;8.68;5.45;;;;;;;;;;4992976;28;20104;-67
2021/01/03 00:57:10;;;;;;;9.93;5.50;;;;;;;;;;4993006;28;20124;-67
2021/01/03 00:59:36;;;;;;;9.73;5.78;;;;;;;;;;5000364;28;20050;-68
2021/01/03 01:02:02;;;;;;;10.15;5.97;;;;;;;;;;5012509;28;20053;-68
2021/01/03 01:04:28;;;;;;;10.52;6.40;;;;;;;;;;5012509;28;20057;-68
2021/01/03 01:06:54;;;;;;;8.90;6.15;;;;;;;;;;5012382;28;20061;-67
2021/01/03 01:09:20;;;;;;;10.98;6.45;;;;;;;;;;5012570;28;20053;-67
2021/01/03 01:11:47;;;;;;;11.27;7.32;;;;;;;;;;5012237;28;20085;-67
2021/01/03 01:14:13;;;;;;;10.10;6.22;;;;;;;;;;5012552;28;20481;-68
2021/01/03 01:16:39;;;;;;;9.38;6.20;;;;;;;;;;5012202;28;20410;-66
2021/01/03 01:19:05;;;;;;;8.65;6.18;;;;;;;;;;5012261;28;20452;-68
2021/01/03 01:21:32;;;;;;;8.13;5.88;;;;;;;;;;5012144;28;20567;-67
2021/01/03 01:23:58;;;;;;;11.95;6.13;;;;;;;;;;5011912;28;20500;-68
2021/01/03 01:26:24;;;;;;;10.10;6.97;;;;;;;;;;5011706;28;20049;-67
2021/01/03 01:28:50;;;;;;;9.98;6.85;;;;;;;;;;5011935;28;20563;-66
2021/01/03 01:31:16;;;;;;;8.63;6.22;;;;;;;;;;5012375;28;20100;-67
2021/01/03 01:33:43;;;;;;;8.32;5.88;;;;;;;;;;5012006;28;20077;-67
2021/01/03 01:36:09;;;;;;;11.23;7.15;;;;;;;;;;5011774;28;20049;-68
2021/01/03 01:38:35;;;;;;;8.80;6.55;;;;;;;;;;5012053;28;20567;-67
2021/01/03 01:41:02;;;;;;;9.77;6.60;;;;;;;;;;5011987;28;20125;-67
2021/01/03 01:43:29;;;;;;;10.13;7.35;;;;;;;;;;5012059;28;20489;-67
2021/01/03 01:45:55;;;;;;;11.57;7.15;;;;;;;;;;4994289;28;20089;-67
2021/01/03 01:48:33;;;;;;;9.45;6.57;;;;;;;;;;5012059;28;20112;-68
2021/01/03 01:51:03;;;;;;;11.48;7.45;;;;;;;;;;5010617;28;20092;-67
2021/01/03 01:53:45;;;;;;;11.60;7.75;;;;;;;;;;4991318;28;20086;-67
2021/01/03 01:56:23;;;;;;;10.55;7.03;;;;;;;;;;4990900;28;20050;-67
2021/01/03 01:59:11;;;;;;;14.30;7.85;;;;;;;;;;4991190;28;20094;-67
2021/01/03 02:01:43;;;;;;;11.82;7.47;;;;;;;;;;4991079;28;20047;-67
2021/01/03 02:04:18;;;;;;;11.25;8.30;;;;;;;;;;4977236;28;20564;-67
2021/01/03 02:06:46;;;;;;;14.05;8.20;;;;;;;;;;5010394;28;20489;-67
2021/01/03 02:09:16;;;;;;;13.45;8.18;;;;;;;;;;5010632;28;20072;-67
2021/01/03 02:11:42;;;;;;;13.48;8.57;;;;;;;;;;4994513;28;20092;-66
2021/01/03 02:14:09;;;;;;;13.10;8.32;;;;;;;;;;5011680;28;20085;-67
2021/01/03 02:16:36;;;;;;;14.32;9.82;;;;;;;;;;5011472;28;20496;-67
2021/01/03 02:19:05;;;;;;;15.43;9.18;;;;;;;;;;4994164;28;20555;-67
2021/01/03 02:21:45;;;;;;;15.98;9.57;;;;;;;;;;4994609;28;20081;-66
2021/01/03 02:24:10;;;;;;;17.27;9.77;;;;;;;;;;5011554;28;20500;-66
2021/01/03 02:26:39;;;;;;;13.98;8.75;;;;;;;;;;5011133;28;20046;-67
2021/01/03 02:29:06;;;;;;;14.90;9.60;;;;;;;;;;4994351;28;20054;-67
2021/01/03 02:31:34;;;;;;;14.95;9.77;;;;;;;;;;5008005;28;20100;-67
2021/01/03 02:34:01;;;;;;;14.88;9.38;;;;;;;;;;4991822;28;20718;-67
2021/01/03 02:36:31;;;;;;;18.50;10.90;;;;;;;;;;4974506;28;20086;-67
2021/01/03 02:39:23;;;;;;;18.70;11.55;;;;;;;;;;4993908;28;20050;-67
2021/01/03 02:41:58;;;;;;;18.00;10.57;;;;;;;;;;4990052;28;20046;-67
2021/01/03 02:44:24;;;;;;;19.15;11.20;;;;;;;;;;4995616;28;20050;-67
2021/01/03 02:46:51;;;;;;;18.67;11.50;;;;;;;;;;5014766;28;20046;-67
2021/01/03 02:49:17;;;;;;;20.08;12.13;;;;;;;;;;5015144;28;20053;-67
2021/01/03 02:51:43;;;;;;;19.92;12.35;;;;;;;;;;5014987;28;20575;-66
2021/01/03 02:54:09;;;;;;;19.10;12.15;;;;;;;;;;5014878;28;20112;-67
2021/01/03 02:56:35;;;;;;;20.77;12.45;;;;;;;;;;5014690;28;20128;-67
2021/01/03 02:59:03;;;;;;;20.73;13.32;;;;;;;;;;5008930;28;20081;-68
2021/01/03 03:01:29;;;;;;;22.23;12.23;;;;;;;;;;4995164;28;20058;-67
2021/01/03 03:03:55;;;;;;;19.25;12.27;;;;;;;;;;4994993;28;20066;-68
2021/01/03 03:06:21;;;;;;;20.25;11.95;;;;;;;;;;4995010;28;20128;-68
2021/01/03 03:08:48;;;;;;;21.48;13.35;;;;;;;;;;4995003;28;20494;-67
2021/01/03 03:11:15;;;;;;;20.02;12.57;;;;;;;;;;4995072;28;20061;-67
2021/01/03 03:13:41;;;;;;;22.65;13.02;;;;;;;;;;5013235;28;20049;-67
2021/01/03 03:16:07;;;;;;;21.92;12.52;;;;;;;;;;5014224;28;20535;-67
2021/01/03 03:18:33;;;;;;;23.40;13.30;;;;;;;;;;5014497;28;20501;-68
2021/01/03 03:20:59;;;;;;;23.90;14.00;;;;;;;;;;5014320;28;20045;-68
2021/01/03 03:23:25;;;;;;;23.08;13.60;;;;;;;;;;5014530;28;20049;-67
2021/01/03 03:25:51;;;;;;;25.33;13.80;;;;;;;;;;5014115;28;20046;-67
2021/01/03 03:28:17;;;;;;;21.65;13.63;;;;;;;;;;5014230;28;20053;-67
2021/01/03 03:30:44;;;;;;;25.77;14.43;;;;;;;;;;5014292;28;20539;-68
2021/01/03 03:33:10;;;;;;;22.08;13.63;;;;;;;;;;5014210;28;20136;-67
2021/01/03 03:35:37;;;;;;;25.73;14.95;;;;;;;;;;5013786;28;20084;-67
2021/01/03 03:38:06;;;;;;;25.42;14.85;;;;;;;;;;5014222;28;20054;-67
2021/01/03 03:40:33;;;;;;;23.45;13.52;;;;;;;;;;5014032;28;20116;-67
2021/01/03 03:42:59;;;;;;;22.10;14.48;;;;;;;;;;5013845;28;20053;-67
2021/01/03 03:45:26;;;;;;;25.48;15.30;;;;;;;;;;5013721;28;20133;-67
2021/01/03 03:47:52;;;;;;;24.23;14.98;;;;;;;;;;5013941;28;20050;-67
2021/01/03 03:50:21;;;;;;;22.00;14.15;;;;;;;;;;5013653;28;20120;-67
2021/01/03 03:52:47;;;;;;;24.58;14.45;;;;;;;;;;5012442;28;20050;-67
2021/01/03 03:55:14;;;;;;;24.58;14.35;;;;;;;;;;4994237;28;20101;-68
2021/01/03 03:57:40;;;;;;;26.02;15.00;;;;;;;;;;4994144;28;20104;-67
2021/01/03 04:00:21;;;;;;;22.73;14.20;;;;;;;;;;4994121;28;20054;-67
2021/01/03 04:02:47;;;;;;;23.13;14.60;;;;;;;;;;4994070;28;20089;-67
2021/01/03 04:05:16;;;;;;;23.90;14.32;;;;;;;;;;5031518;23;20046;-68
2021/01/03 04:07:42;;;;;;;27.58;15.75;;;;;;;;;;5012577;28;20096;-68
2021/01/03 04:10:08;;;;;;;25.92;15.43;;;;;;;;;;5012339;28;20050;-68
2021/01/03 04:12:35;;;;;;;24.13;15.00;;;;;;;;;;5028853;28;20049;-68
2021/01/03 04:15:08;;;;;;;26.85;16.08;;;;;;;;;;5012360;28;20049;-68
2021/01/03 04:17:34;;;;;;;25.88;15.48;;;;;;;;;;5012011;28;20180;-68
2021/01/03 04:20:02;;;;;;;25.20;14.07;;;;;;;;;;5018118;28;20054;-69
2021/01/03 04:22:29;;;;;;;24.75;14.35;;;;;;;;;;5003484;28;20054;-68
2021/01/03 04:24:59;;;;;;;27.80;15.70;;;;;;;;;;4999468;28;20493;-68
2021/01/03 04:27:26;;;;;;;26.83;16.08;;;;;;;;;;4986116;28;20457;-68
2021/01/03 04:29:52;;;;;;;25.38;15.45;;;;;;;;;;5010066;28;20111;-68
2021/01/03 04:32:18;;;;;;;27.10;15.45;;;;;;;;;;4995939;28;20073;-68
2021/01/03 04:34:45;;;;;;;25.13;14.82;;;;;;;;;;4953626;28;24193;-68
2021/01/03 04:37:11;;;;;;;26.58;15.90;;;;;;;;;;4928798;28;39794;-68
2021/01/03 04:39:37;;;;;;;27.52;15.93;;;;;;;;;;5005702;28;20050;-68
2021/01/03 04:42:08;;;;;;;24.50;15.07;;;;;;;;;;5005274;28;20500;-68
2021/01/03 04:44:59;;;;;;;26.83;16.38;;;;;;;;;;4986009;28;20065;-68
2021/01/03 04:47:28;;;;;;;25.63;15.13;;;;;;;;;;4992205;28;20061;-68
2021/01/03 04:50:06;;;;;;;22.88;14.18;;;;;;;;;;4993008;28;20053;-69
2021/01/03 04:53:09;;;;;;;26.23;15.63;;;;;;;;;;4993394;28;20085;-68
2021/01/03 04:55:40;;;;;;;24.57;14.70;;;;;;;;;;4993113;28;20108;-68
2021/01/03 04:58:15;;;;;;;24.35;15.48;;;;;;;;;;4976509;28;20124;-68
2021/01/03 05:00:46;;;;;;;26.98;14.90;;;;;;;;;;4992465;28;20058;-68
2021/01/03 05:03:44;;;;;;;27.00;15.57;;;;;;;;;;4976362;28;20464;-68
2021/01/03 05:06:15;;;;;;;25.55;15.10;;;;;;;;;;4991385;28;20050;-68
2021/01/03 05:08:48;;;;;;;26.88;15.85;;;;;;;;;;4993476;28;20113;-68
2021/01/03 05:11:25;;;;;;;25.83;15.23;;;;;;;;;;5011277;28;20080;-68
2021/01/03 05:14:10;;;;;;;28.95;15.85;;;;;;;;;;5012634;28;20098;-68
2021/01/03 05:16:36;;;;;;;25.42;15.10;;;;;;;;;;5009758;28;20075;-68
2021/01/03 05:19:02;;;;;;;30.30;15.48;;;;;;;;;;5004780;28;20061;-68
2021/01/03 05:21:45;;;;;;;27.45;16.27;;;;;;;;;;4994286;28;20456;-68
2021/01/03 05:24:11;;;;;;;26.80;16.30;;;;;;;;;;4991685;28;20054;-68
2021/01/03 05:26:37;;;;;;;26.25;15.00;;;;;;;;;;4992519;28;20106;-68
2021/01/03 05:29:05;;;;;;;27.15;15.60;;;;;;;;;;4992885;28;20053;-68
2021/01/03 05:31:32;;;;;;;26.13;15.25;;;;;;;;;;4991316;28;20046;-68
2021/01/03 05:34:04;;;;;;;25.20;14.80;;;;;;;;;;4975331;28;20089;-68
2021/01/03 05:36:42;;;;;;;28.17;15.38;;;;;;;;;;4991960;28;20390;-68
2021/01/03 05:39:17;;;;;;;25.58;15.25;;;;;;;;;;4991781;28;20050;-68
2021/01/03 05:41:52;;;;;;;25.35;14.57;;;;;;;;;;4992338;28;20050;-67
2021/01/03 05:44:24;;;;;;;26.98;15.55;;;;;;;;;;4991351;28;20054;-68
2021/01/03 05:46:58;;;;;;;27.33;15.63;;;;;;;;;;4992195;28;20129;-68
2021/01/03 05:49:26;;;;;;;28.77;17.05;;;;;;;;;;4992129;28;20077;-68
2021/01/03 05:52:10;;;;;;;26.23;14.75;;;;;;;;;;4991329;28;20054;-68
2021/01/03 05:54:37;;;;;;;27.35;16.60;;;;;;;;;;4992317;28;20053;-68
2021/01/03 05:57:10;;;;;;;24.90;15.95;;;;;;;;;;5006985;28;20109;-68
2021/01/03 05:59:40;;;;;;;25.80;14.93;;;;;;;;;;4975502;28;20073;-68
2021/01/03 06:02:10;;;;;;;28.50;16.20;;;;;;;;;;5006477;28;20054;-68
2021/01/03 06:04:37;;;;;;;26.80;15.13;;;;;;;;;;4991082;28;20054;-68
2021/01/03 06:07:26;;;;;;;25.55;15.00;;;;;;;;;;4974906;28;20113;-68
2021/01/03 06:09:52;;;;;;;27.10;15.77;;;;;;;;;;4976400;28;20085;-69
2021/01/03 06:12:25;;;;;;;26.80;16.63;;;;;;;;;;4992146;28;20047;-69
2021/01/03 06:14:53;;;;;;;28.15;15.50;;;;;;;;;;4986021;28;20046;-69
2021/01/03 06:17:19;;;;;;;28.42;17.45;;;;;;;;;;4998030;28;20425;-68
2021/01/03 06:19:48;;;;;;;25.27;14.55;;;;;;;;;;5015768;28;20136;-68
2021/01/03 06:22:47;;;;;;;25.48;16.40;;;;;;;;;;5014357;28;20092;-68
2021/01/03 06:25:51;;;;;;;24.92;16.00;;;;;;;;;;5014293;28;20191;-69
2021/01/03 06:28:24;;;;;;;26.25;15.55;;;;;;;;;;5014344;28;20053;-68
2021/01/03 06:31:06;;;;;;;26.05;15.85;;;;;;;;;;5015395;28;20050;-68
2021/01/03 06:33:58;;;;;;;26.92;16.40;;;;;;;;;;5015526;28;20053;-68
2021/01/03 06:36:39;;;;;;;27.88;16.05;;;;;;;;;;5015226;28;20046;-68
2021/01/03 06:39:11;;;;;;;23.63;14.70;;;;;;;;;;5014180;28;20049;-68
2021/01/03 06:41:56;;;;;;;29.95;16.30;;;;;;;;;;5012385;28;20050;-68
2021/01/03 06:44:28;;;;;;;25.25;15.35;;;;;;;;;;4999361;28;20501;-68
2021/01/03 06:47:25;;;;;;;24.60;15.00;;;;;;;;;;5013865;28;20123;-68
2021/01/03 06:50:13;;;;;;;27.10;14.85;;;;;;;;;;5015244;28;20108;-68
2021/01/03 06:52:54;;;;;;;25.27;14.77;;;;;;;;;;5015128;28;20463;-68
2021/01/03 06:55:58;;;;;;;25.42;14.73;;;;;;;;;;5014746;28;20424;-69
2021/01/03 06:59:02;;;;;;;26.35;15.90;;;;;;;;;;5002101;28;20394;-69
2021/01/03 07:01:30;;;;;;;22.58;13.50;;;;;;;;;;4990576;28;20492;-69
2021/01/03 07:03:57;;;;;;;25.10;14.68;;;;;;;;;;5014895;28;20104;-68
2021/01/03 07:06:34;;;;;;;25.60;15.27;;;;;;;;;;5013281;28;20046;-69
2021/01/03 07:09:08;;;;;;;24.70;14.88;;;;;;;;;;5015071;28;20061;-68
2021/01/03 07:11:47;;;;;;;23.67;14.18;;;;;;;;;;5013762;28;20053;-68
2021/01/03 07:14:33;;;;;;;21.63;13.88;;;;;;;;;;5013938;28;20089;-69
2021/01/03 07:17:13;;;;;;;23.88;14.77;;;;;;;;;;5003914;28;20049;-69
2021/01/03 07:19:43;;;;;;;23.30;13.55;;;;;;;;;;5014205;28;20505;-69
2021/01/03 07:22:23;;;;;;;22.52;13.80;;;;;;;;;;5013890;28;20081;-69
2021/01/03 07:25:22;;;;;;;22.95;14.35;;;;;;;;;;5012696;28;20049;-69
2021/01/03 07:28:08;;;;;;;22.90;14.27;;;;;;;;;;5013336;28;20053;-69
2021/01/03 07:30:53;;;;;;;24.88;13.98;;;;;;;;;;5013467;28;20050;-69
2021/01/03 07:33:26;;;;;;;24.90;14.10;;;;;;;;;;4998804;28;20497;-69
2021/01/03 07:35:52;;;;;;;23.30;14.20;;;;;;;;;;5013264;28;20058;-69
2021/01/03 07:38:28;;;;;;;28.27;16.13;;;;;;;;;;5013133;28;20045;-68
2021/01/03 07:41:04;;;;;;;24.40;14.52;;;;;;;;;;5014030;28;20041;-69
2021/01/03 07:43:55;;;;;;;21.73;13.60;;;;;;;;;;5028969;28;20159;-68
2021/01/03 07:46:40;;;;;;;25.23;14.25;;;;;;;;;;5012743;28;20054;-68
2021/01/03 07:49:27;;;;;;;26.52;15.13;;;;;;;;;;5014029;28;20049;-68
2021/01/03 07:51:53;;;;;;;25.75;15.32;;;;;;;;;;5012413;28;20057;-69
2021/01/03 07:54:19;;;;;;;25.20;15.13;;;;;;;;;;5012803;28;20053;-68
2021/01/03 07:56:45;;;;;;;23.92;14.27;;;;;;;;;;5012193;28;20050;-68
2021/01/03 07:59:11;;;;;;;25.15;14.95;;;;;;;;;;5010058;28;20054;-68
2021/01/03 08:01:43;;;;;;;23.08;14.85;;;;;;;;;;5010308;28;20092;-68
2021/01/03 08:04:18;;;;;;;25.55;16.08;;;;;;;;;;5002238;28;20116;-68
2021/01/03 08:06:44;;;;;;;22.83;14.57;;;;;;;;;;4991326;28;20510;-68
2021/01/03 08:09:10;;;;;;;26.65;15.23;;;;;;;;;;4992221;28;20086;-68
2021/01/03 08:11:38;;;;;;;23.58;15.77;;;;;;;;;;4991537;28;20052;-68
2021/01/03 08:14:06;;;;;;;25.98;16.08;;;;;;;;;;4990776;28;20507;-68
2021/01/03 08:16:32;;;;;;;24.80;14.70;;;;;;;;;;4974358;28;20086;-68
2021/01/03 08:19:06;;;;;;;28.42;16.25;;;;;;;;;;4974390;28;20084;-68
2021/01/03 08:21:37;;;;;;;30.40;16.80;;;;;;;;;;4975561;28;20046;-68
2021/01/03 08:24:03;;;;;;;27.90;17.17;;;;;;;;;;4990069;28;20054;-68
2021/01/03 08:26:37;;;;;;;30.55;19.13;;;;;;;;;;4991448;28;20456;-68
2021/01/03 08:29:14;;;;;;;29.48;17.23;;;;;;;;;;4975536;28;20109;-68
2021/01/03 08:31:48;;;;;;;30.63;17.45;;;;;;;;;;5002548;28;20096;-68
2021/01/03 08:34:16;;;;;;;32.22;16.50;;;;;;;;;;5026377;28;20088;-68
2021/01/03 08:36:42;;;;;;;28.27;16.75;;;;;;;;;;5008429;28;20107;-68
2021/01/03 08:39:13;;;;;;;29.17;16.65;;;;;;;;;;5011411;28;20496;-68
2021/01/03 08:42:02;;;;;;;31.23;17.88;;;;;;;;;;5010077;28;20073;-68
2021/01/03 08:44:36;;;;;;;29.27;16.25;;;;;;;;;;5009154;28;20062;-71
2021/01/03 08:47:11;;;;;;;32.35;17.35;;;;;;;;;;4993277;28;20398;-70
2021/01/03 08:49:38;;;;;;;28.63;17.73;;;;;;;;;;5010229;28;20277;-69
2021/01/03 08:52:22;;;;;;;32.88;17.70;;;;;;;;;;5009899;28;20042;-69
2021/01/03 08:54:50;;;;;;;31.13;19.02;;;;;;;;;;5021753;28;20424;-76
2021/01/03 08:57:20;;;;;;;32.03;16.55;;;;;;;;;;4982231;28;20079;-75
2021/01/03 08:59:51;;;;;;;27.85;17.67;;;;;;;;;;4999274;28;20647;-72
2021/01/03 09:02:22;;;;;;;28.75;17.25;;;;;;;;;;4986856;28;20057;-70
2021/01/03 09:04:48;;;;;;;24.70;16.10;;;;;;;;;;4976201;28;20559;-75
2021/01/03 09:07:15;;;;;;;26.60;15.50;;;;;;;;;;5000065;28;20132;-71
2021/01/03 09:09:48;;;;;;;29.17;17.08;;;;;;;;;;4987044;28;20042;-72
2021/01/03 09:12:14;;;;;;;;;;;;;;;;;;4998935;28;20049;-70
2021/01/03 09:14:49;;;;;;;26.63;15.98;;;;;;;;;;4998763;28;19925;-70
2021/01/03 09:17:19;;;;;;;27.30;15.68;;;;;;;;;;4965721;28;20794;-72
2021/01/03 09:20:01;;;;;;;27.00;16.27;;;;;;;;;;5009107;28;20042;-72
2021/01/03 09:22:36;;;;;;;28.33;16.05;;;;;;;;;;5001610;28;20046;-73
2021/01/03 09:25:06;;;;;;;25.83;15.23;;;;;;;;;;5011551;28;20066;-72
2021/01/03 09:27:36;;;;;;;26.95;16.65;;;;;;;;;;4996575;28;20130;-71
2021/01/03 09:30:23;;;;;;;25.95;15.50;;;;;;;;;;4982859;28;20054;-70
2021/01/03 09:33:19;;;;;;;24.35;15.15;;;;;;;;;;5016220;28;20049;-69
2021/01/03 09:36:10;;;;;;;26.92;17.38;;;;;;;;;;5012186;28;20050;-70
2021/01/03 09:38:40;;;;;;;24.15;15.65;;;;;;;;;;4995617;28;20053;-69
2021/01/03 09:41:29;;;;;;;24.13;15.00;;;;;;;;;;4994928;28;20057;-72
2021/01/03 09:44:34;;;;;;;22.30;14.50;;;;;;;;;;5011316;28;20058;-72
2021/01/03 09:47:09;;;;;;;24.67;15.10;;;;;;;;;;4996343;28;20046;-71
2021/01/03 09:49:36;;;;;;;25.27;15.38;;;;;;;;;;4997659;28;20054;-72
2021/01/03 09:52:33;;;;;;;21.58;13.82;;;;;;;;;;4999155;28;20046;-72
2021/01/03 09:55:02;;;;;;;21.38;14.32;;;;;;;;;;4999580;28;20062;-69
2021/01/03 09:57:47;;;;;;;22.63;14.25;;;;;;;;;;4994398;28;20129;-73
2021/01/03 10:00:21;;;;;;;22.65;13.82;;;;;;;;;;4995315;28;20058;-73
2021/01/03 10:02:48;;;;;;;20.05;13.60;;;;;;;;;;5011961;28;20100;-70
2021/01/03 10:05:24;;;;;;;22.17;14.88;;;;;;;;;;5004029;28;20417;-70
2021/01/03 10:07:59;;;;;;;20.05;12.57;;;;;;;;;;4997434;28;20057;-70
2021/01/03 10:10:57;;;;;;;21.05;13.50;;;;;;;;;;4999415;28;20061;-70
2021/01/03 10:13:27;;;;;;;20.48;12.75;;;;;;;;;;5000021;28;20568;-70
2021/01/03 10:15:53;;;;;;;21.00;14.00;;;;;;;;;;5012140;28;20425;-74
2021/01/03 10:18:46;;;;;;;22.52;15.48;;;;;;;;;;4980650;28;20054;-75
2021/01/03 10:21:33;;;;;;;25.13;15.02;;;;;;;;;;4999519;28;20054;-76
2021/01/03 10:24:20;;;;;;;32.95;18.52;;;;;;;;;;4998357;28;20046;-72
2021/01/03 10:27:07;;;;;;;27.85;15.55;;;;;;;;;;4997306;28;20064;-74
2021/01/03 10:29:33;;;;;;;23.00;13.10;;;;;;;;;;4999468;28;20057;-71
2021/01/03 10:32:01;;;;;;;23.95;14.13;;;;;;;;;;5003623;28;20046;-72
2021/01/03 10:37:12;;;;;;;21.85;13.07;;;;;;;;;;5010220;23;20046;-72
2021/01/03 10:39:50;;;;;;;20.90;13.55;;;;;;;;;;4978952;28;20127;-71
2021/01/03 10:42:17;;;;;;;23.88;13.10;;;;;;;;;;4981546;28;20490;-73
2021/01/03 10:47:22;;;;;;;22.10;14.05;;;;;;;;;;5012958;23;20058;-74
2021/01/03 10:49:59;;;;;;;22.30;14.30;;;;;;;;;;4947211;28;20738;-72
2021/01/03 10:52:25;;;;;;;24.98;14.70;;;;;;;;;;4952541;28;20113;-72
2021/01/03 10:55:18;;;;;;;25.92;15.70;;;;;;;;;;4978692;28;20575;-79
2021/01/03 10:58:03;;;;;;;23.55;14.68;;;;;;;;;;4987288;28;20053;-74
2021/01/03 11:00:29;;;;;;;27.30;16.95;;;;;;;;;;4946286;28;20469;-72
2021/01/03 11:02:55;;;;;;;25.40;15.88;;;;;;;;;;4978483;28;20130;-72
2021/01/03 11:05:21;;;;;;;21.92;14.35;;;;;;;;;;4978584;28;20054;-74
2021/01/03 11:07:47;;;;;;;25.00;15.00;;;;;;;;;;4975025;28;20050;-72
2021/01/03 11:10:13;;;;;;;25.02;14.80;;;;;;;;;;4981045;28;20046;-72
2021/01/03 11:12:40;;;;;;;25.48;15.07;;;;;;;;;;4964011;28;20073;-71
2021/01/03 11:15:10;;;;;;;29.98;17.45;;;;;;;;;;4966175;28;20046;-74
2021/01/03 11:17:51;;;;;;;27.10;17.75;;;;;;;;;;4964413;28;20066;-73
2021/01/03 11:20:17;;;;;;;29.50;18.20;;;;;;;;;;4963109;28;20065;-70
2021/01/03 11:22:43;;;;;;;27.77;17.38;;;;;;;;;;4979855;28;20576;-75
2021/01/03 11:25:11;;;;;;;28.55;18.17;;;;;;;;;;4963933;28;20062;-70
2021/01/03 11:27:37;;;;;;;27.95;16.67;;;;;;;;;;4985282;28;20050;-73
2021/01/03 11:30:06;;;;;;;24.15;15.93;;;;;;;;;;4961970;28;20125;-72
2021/01/03 11:32:32;;;;;;;26.60;15.73;;;;;;;;;;4972787;28;20101;-70
2021/01/03 11:34:58;;;;;;;28.55;15.88;;;;;;;;;;4960968;28;20129;-71
2021/01/03 11:37:26;;;;;;;27.70;16.48;;;;;;;;;;4980730;28;20058;-71
2021/01/03 11:39:52;;;;;;;25.20;15.32;;;;;;;;;;4952484;28;20395;-70
2021/01/03 11:42:30;;;;;;;25.50;15.25;;;;;;;;;;4963054;28;20089;-70
2021/01/03 11:44:57;;;;;;;24.58;16.13;;;;;;;;;;4970015;28;20081;-70
2021/01/03 11:47:23;;;;;;;26.58;17.05;;;;;;;;;;4961944;28;20100;-70
2021/01/03 11:49:49;;;;;;;25.77;16.20;;;;;;;;;;4955634;28;20050;-70
2021/01/03 11:52:36;;;;;;;25.90;15.65;;;;;;;;;;4964522;28;20051;-70
2021/01/03 11:55:05;;;;;;;24.00;14.40;;;;;;;;;;4947086;28;20094;-70
2021/01/03 11:57:31;;;;;;;24.75;16.15;;;;;;;;;;4977460;28;20054;-70
2021/01/03 11:59:57;;;;;;;27.48;16.60;;;;;;;;;;4962151;28;20921;-70
2021/01/03 12:02:23;;;;;;;24.42;15.38;;;;;;;;;;4962414;28;20240;-71
2021/01/03 12:04:50;;;;;;;24.08;13.93;;;;;;;;;;4961461;28;20113;-71
2021/01/03 12:07:18;;;;;;;23.60;14.32;;;;;;;;;;4979246;28;20090;-71
2021/01/03 12:09:45;;;;;;;24.10;14.38;;;;;;;;;;4974220;23;20075;-72
2021/01/03 12:12:15;;;;;;;21.52;13.45;;;;;;;;;;4972997;28;20050;-72
2021/01/03 12:14:41;;;;;;;24.58;14.43;;;;;;;;;;4972209;28;20685;-72
2021/01/03 12:17:16;;;;;;;22.77;14.10;;;;;;;;;;4971318;28;20050;-72
2021/01/03 12:19:43;;;;;;;23.67;14.73;;;;;;;;;;4972327;28;20051;-71
2021/01/03 12:22:10;;;;;;;22.30;14.18;;;;;;;;;;4951061;28;20219;-72
2021/01/03 12:24:36;;;;;;;21.83;13.30;;;;;;;;;;4963463;28;20425;-72
2021/01/03 12:27:04;;;;;;;23.42;13.70;;;;;;;;;;4948647;28;20047;-71
2021/01/03 12:32:10;;;;;;;23.20;14.55;;;;;;;;;;524960;26;20452;-72
2021/01/03 12:34:37;;;;;;;24.10;14.80;;;;;;;;;;4973730;28;20108;-73
2021/01/03 12:37:24;;;;;;;21.65;13.82;;;;;;;;;;4999984;28;20058;-76
2021/01/03 12:39:51;;;;;;;25.30;14.30;;;;;;;;;;4963819;28;20494;-72
2021/01/03 12:46:08;;;;;;;19.27;12.70;;;;;;;;;;4942208;28;20046;-73
2021/01/03 12:52:41;;;;;;;24.38;14.73;;;;;;;;;;4959913;28;20037;-71
2021/01/03 12:55:14;;;;;;;22.98;14.98;;;;;;;;;;4974912;28;20631;-72
2021/01/03 12:57:55;;;;;;;22.92;15.10;;;;;;;;;;4956609;28;20067;-71
2021/01/03 13:00:21;;;;;;;21.58;13.95;;;;;;;;;;4960901;28;20050;-71
2021/01/03 13:02:50;;;;;;;23.30;14.48;;;;;;;;;;4961749;28;20055;-72
2021/01/03 13:05:20;;;;;;;23.88;15.20;;;;;;;;;;4965146;28;20466;-70
2021/01/03 13:07:46;;;;;;;22.17;14.65;;;;;;;;;;4962618;28;20549;-73
2021/01/03 13:10:12;;;;;;;21.63;14.00;;;;;;;;;;4961738;28;20047;-72
2021/01/03 13:12:38;;;;;;;25.08;15.23;;;;;;;;;;4958221;28;20047;-72
2021/01/03 13:15:09;;;;;;;23.60;13.75;;;;;;;;;;4961234;28;20426;-72
2021/01/03 13:17:35;;;;;;;22.45;14.52;;;;;;;;;;4948485;28;20097;-72
2021/01/03 13:20:02;;;;;;;23.63;14.85;;;;;;;;;;4976656;28;20051;-72
2021/01/03 13:22:28;;;;;;;22.40;13.77;;;;;;;;;;4958931;28;20067;-72
2021/01/03 13:24:55;;;;;;;20.50;14.85;;;;;;;;;;4974228;28;20423;-72
2021/01/03 13:27:21;;;;;;;23.15;14.18;;;;;;;;;;4977181;28;20504;-72
2021/01/03 13:29:47;;;;;;;21.20;13.35;;;;;;;;;;4959449;28;20051;-72
2021/01/03 13:32:13;;;;;;;21.42;14.00;;;;;;;;;;4959501;28;20118;-72
2021/01/03 13:34:39;;;;;;;22.30;15.10;;;;;;;;;;4960713;28;20109;-72
2021/01/03 13:37:05;;;;;;;24.70;14.95;;;;;;;;;;4959961;28;20051;-72
2021/01/03 13:39:31;;;;;;;19.95;13.88;;;;;;;;;;4960108;28;20055;-72
2021/01/03 13:41:58;;;;;;;24.55;15.10;;;;;;;;;;4974611;28;20085;-72
2021/01/03 13:44:24;;;;;;;22.55;14.57;;;;;;;;;;4975252;28;20097;-71
2021/01/03 13:46:54;;;;;;;21.77;13.60;;;;;;;;;;4959267;28;20051;-72
2021/01/03 13:49:20;;;;;;;24.45;14.35;;;;;;;;;;4961665;28;20106;-72
2021/01/03 13:51:49;;;;;;;21.10;13.45;;;;;;;;;;4958713;28;20501;-71
2021/01/03 13:54:16;;;;;;;23.75;14.95;;;;;;;;;;4967123;28;20051;-73
2021/01/03 13:56:43;;;;;;;22.90;14.93;;;;;;;;;;4976292;28;20047;-71
2021/01/03 13:59:09;;;;;;;24.63;15.40;;;;;;;;;;4961070;28;20054;-71
2021/01/03 14:01:47;;;;;;;23.52;15.07;;;;;;;;;;4957967;28;20043;-72
2021/01/03 14:04:17;;;;;;;23.85;14.43;;;;;;;;;;4970551;28;20109;-71
2021/01/03 14:06:43;;;;;;;23.20;14.60;;;;;;;;;;4961455;28;20477;-72
2021/01/03 14:09:32;;;;;;;;;;;;;;;;;;;;;
2021/01/03 14:12:27;;;;;;;22.70;13.77;;;;;;;;;;4959179;28;20130;-73
2021/01/03 14:15:44;;;;;;;22.83;14.05;;;;;;;;;;4976724;28;20138;-71
2021/01/03 14:18:57;;;;;;;20.90;13.77;;;;;;;;;;4861175;28;20476;-71
2021/01/03 14:21:59;;;;;;;21.80;14.13;;;;;;;;;;4978797;28;20458;-71
2021/01/03 14:24:24;;;;;;;21.75;14.02;;;;;;;;;;4972630;28;20676;-70
2021/01/03 14:26:53;;;;;;;24.48;13.45;;;;;;;;;;4977296;28;20059;-72
2021/01/03 14:29:22;;;;;;;23.50;13.95;;;;;;;;;;4961278;28;20079;-70
2021/01/03 14:32:01;;;;;;;25.33;13.60;;;;;;;;;;4964381;28;20067;-73
2021/01/03 14:34:38;;;;;;;23.00;14.00;;;;;;;;;;4959028;28;20051;-71
2021/01/03 14:37:25;;;;;;;25.80;14.20;;;;;;;;;;4964968;28;20055;-70
2021/01/03 14:40:00;;;;;;;24.40;14.88;;;;;;;;;;4965460;28;20462;-71
2021/01/03 14:42:32;;;;;;;24.13;13.45;;;;;;;;;;4962553;28;20760;-71
2021/01/03 14:45:00;;;;;;;24.05;14.70;;;;;;;;;;4960476;28;20051;-70
2021/01/03 14:47:39;;;;;;;25.80;15.65;;;;;;;;;;4962782;28;20047;-72
2021/01/03 14:50:23;;;;;;;24.40;13.82;;;;;;;;;;4971696;28;20090;-70
2021/01/03 14:53:08;;;;;;;27.17;15.07;;;;;;;;;;4961117;28;20043;-71
2021/01/03 14:55:56;;;;;;;25.52;16.17;;;;;;;;;;4981305;28;20059;-71
2021/01/03 14:59:16;;;;;;;26.70;15.13;;;;;;;;;;4966127;28;20054;-72
2021/01/03 15:01:56;;;;;;;25.13;15.35;;;;;;;;;;4974111;28;20058;-75
2021/01/03 15:04:26;;;;;;;26.98;15.18;;;;;;;;;;4959169;28;20126;-73
2021/01/03 15:07:08;;;;;;;29.58;17.20;;;;;;;;;;4980577;28;20046;-70